Time;durP1;ratioP1;P1;durP2;ratioP2;P2;SDS_P1;SDS_P2;PMS_P1;PMS_P2;Temp;Humidity;BMP_temperature;BMP_pressure;BME280_temperature;BME280_humidity;BME280_pressure;Samples;Min_cycle;Max_cycle;Signal;HPM_P1;HPM_P2
2022/02/14 00:02:20;;;;;;;1.60;1.35;;;9.30;51.40;;;;;;4973054;28;20039;-88
2022/02/14 00:04:46;;;;;;;3.67;1.80;;;9.30;51.50;;;;;;4956968;28;20031;-89
2022/02/14 00:07:12;;;;;;;3.63;1.75;;;9.30;51.40;;;;;;4956398;28;20043;-90
2022/02/14 00:09:38;;;;;;;2.42;1.25;;;9.30;51.40;;;;;;4958968;28;20039;-84
2022/02/14 00:12:05;;;;;;;2.80;1.63;;;9.30;51.40;;;;;;4957069;28;20035;-89
2022/02/14 00:14:31;;;;;;;4.25;1.83;;;9.30;51.40;;;;;;4957290;28;20071;-87
2022/02/14 00:16:57;;;;;;;4.25;1.70;;;9.30;51.60;;;;;;4958032;28;20438;-88
2022/02/14 00:19:23;;;;;;;2.58;1.90;;;9.30;51.70;;;;;;4941522;28;20621;-86
2022/02/14 00:21:50;;;;;;;2.05;1.52;;;9.30;51.80;;;;;;4962746;28;20058;-90
2022/02/14 00:24:16;;;;;;;3.75;1.70;;;9.30;52.40;;;;;;4962408;28;20042;-91
2022/02/14 00:26:43;;;;;;;5.57;1.70;;;9.30;51.70;;;;;;4957103;28;20039;-83
2022/02/14 00:29:09;;;;;;;2.58;1.40;;;9.30;51.60;;;;;;4958317;28;20126;-86
2022/02/14 00:31:35;;;;;;;2.45;1.90;;;9.20;51.60;;;;;;4957388;28;20382;-88
2022/02/14 00:34:01;;;;;;;2.28;1.67;;;9.30;51.70;;;;;;4955878;28;20035;-88
2022/02/14 00:36:27;;;;;;;3.45;1.70;;;9.30;51.50;;;;;;4955870;28;20042;-87
2022/02/14 00:38:53;;;;;;;2.85;1.70;;;9.30;51.50;;;;;;4958636;28;20122;-86
2022/02/14 00:41:19;;;;;;;2.85;1.50;;;9.20;51.40;;;;;;4956346;28;20050;-85
2022/02/14 00:43:45;;;;;;;3.47;2.17;;;9.20;51.30;;;;;;4956144;28;20042;-87
2022/02/14 00:46:11;;;;;;;3.65;1.92;;;9.30;51.30;;;;;;4956591;28;20039;-87
2022/02/14 00:48:37;;;;;;;2.42;1.60;;;9.30;51.20;;;;;;4957098;28;20059;-87
2022/02/14 00:51:03;;;;;;;3.13;1.63;;;9.20;51.00;;;;;;4955660;28;20441;-85
2022/02/14 00:53:29;;;;;;;2.55;1.50;;;9.20;50.90;;;;;;4964163;28;20091;-85
2022/02/14 00:55:55;;;;;;;3.60;2.17;;;9.30;51.10;;;;;;4965612;28;20054;-86
2022/02/14 00:58:21;;;;;;;3.45;1.80;;;9.20;51.00;;;;;;4968295;28;20106;-85
2022/02/14 01:00:47;;;;;;;2.78;1.70;;;9.20;51.20;;;;;;4974759;28;20073;-86
2022/02/14 01:03:13;;;;;;;3.47;1.70;;;9.20;51.10;;;;;;4973925;28;20141;-87
2022/02/14 01:05:39;;;;;;;2.25;1.52;;;9.20;51.10;;;;;;4962826;28;20983;-86
2022/02/14 01:08:05;;;;;;;3.50;1.92;;;9.20;51.10;;;;;;4985608;28;20030;-88
2022/02/14 01:10:32;;;;;;;2.50;1.70;;;9.20;50.90;;;;;;4981895;28;20042;-88
2022/02/14 01:12:58;;;;;;;3.85;1.70;;;9.20;50.80;;;;;;4980107;28;20030;-89
2022/02/14 01:15:24;;;;;;;4.10;1.90;;;9.20;50.90;;;;;;4989208;28;20378;-88
2022/02/14 01:17:50;;;;;;;4.15;1.80;;;9.20;50.80;;;;;;4989230;28;20125;-96
2022/02/14 01:20:16;;;;;;;3.65;1.80;;;9.20;50.80;;;;;;4982418;28;20045;-94
2022/02/14 01:22:42;;;;;;;1.75;1.60;;;9.20;50.80;;;;;;4992363;28;20039;-93
2022/02/14 01:25:09;;;;;;;3.58;1.95;;;9.20;51.30;;;;;;4987707;28;20083;-96
2022/02/14 01:27:35;;;;;;;4.65;2.00;;;9.10;51.20;;;;;;4974623;28;20668;-96
2022/02/14 01:30:02;;;;;;;2.97;1.80;;;9.20;50.60;;;;;;4987443;28;20055;-95
2022/02/14 01:32:28;;;;;;;3.42;1.75;;;9.20;50.80;;;;;;4985199;28;20038;-94
2022/02/14 01:34:55;;;;;;;4.55;2.15;;;9.20;50.70;;;;;;4989221;28;20037;-93
2022/02/14 01:37:21;;;;;;;3.70;2.00;;;9.10;50.60;;;;;;4968757;28;20114;-82
2022/02/14 01:39:47;;;;;;;3.08;1.92;;;9.10;50.70;;;;;;4986913;28;20409;-89
2022/02/14 01:42:14;;;;;;;3.75;1.90;;;9.10;51.30;;;;;;4949211;28;20050;-94
2022/02/14 01:44:43;;;;;;;3.75;1.80;;;9.10;50.60;;;;;;4991295;28;20037;-86
2022/02/14 01:47:14;;;;;;;4.43;2.20;;;9.10;50.60;;;;;;4988406;28;20029;-89
2022/02/14 01:49:42;;;;;;;2.78;1.73;;;9.10;50.60;;;;;;4968064;28;20193;-87
2022/02/14 01:52:09;;;;;;;3.08;2.05;;;9.10;50.60;;;;;;4964642;28;20038;-87
2022/02/14 01:54:38;;;;;;;3.53;2.13;;;9.10;50.50;;;;;;4986712;28;20043;-89
2022/02/14 01:57:05;;;;;;;3.10;2.15;;;9.10;50.40;;;;;;4975994;28;20034;-90
2022/02/14 01:59:33;;;;;;;2.60;1.80;;;9.10;50.40;;;;;;4980615;28;20047;-90
2022/02/14 02:02:00;;;;;;;4.38;1.92;;;9.10;50.40;;;;;;4970669;28;20836;-85
2022/02/14 02:04:27;;;;;;;3.72;2.13;;;9.10;50.50;;;;;;4972358;28;20085;-93
2022/02/14 02:06:53;;;;;;;2.50;1.63;;;9.10;50.40;;;;;;4970567;28;20430;-93
2022/02/14 02:09:19;;;;;;;3.20;1.95;;;9.10;50.40;;;;;;4971164;28;20129;-90
2022/02/14 02:14:29;;;;;;;3.15;1.80;;;9.10;50.50;;;;;;4963398;28;20046;-87
2022/02/14 02:16:55;;;;;;;2.60;1.70;;;9.10;50.70;;;;;;4945251;28;20027;-93
2022/02/14 02:19:21;;;;;;;3.90;1.88;;;9.10;50.70;;;;;;4944615;28;20038;-91
2022/02/14 02:21:49;;;;;;;4.05;2.10;;;9.10;50.60;;;;;;4970974;28;20170;-88
2022/02/14 02:24:19;;;;;;;3.83;2.05;;;9.10;50.60;;;;;;4971173;28;20085;-92
2022/02/14 02:27:05;;;;;;;3.13;1.90;;;9.00;50.50;;;;;;4975495;28;20034;-94
2022/02/14 02:29:35;;;;;;;;;;;9.10;50.40;;;;;;4940087;28;20027;-95
2022/02/14 02:32:02;;;;;;;4.03;2.28;;;9.10;50.30;;;;;;4976519;28;19917;-93
2022/02/14 02:34:28;;;;;;;2.75;1.50;;;9.00;50.20;;;;;;4959255;28;20031;-95
2022/02/14 02:36:56;;;;;;;3.50;2.10;;;9.00;50.20;;;;;;4972934;28;20042;-90
2022/02/14 02:39:23;;;;;;;3.35;1.95;;;9.00;50.20;;;;;;4969258;28;20046;-94
2022/02/14 02:41:50;;;;;;;2.65;1.63;;;9.00;50.30;;;;;;4959727;28;20070;-94
2022/02/14 02:44:17;;;;;;;4.47;1.90;;;9.00;50.40;;;;;;4973726;28;20093;-91
2022/02/14 02:46:43;;;;;;;2.40;1.55;;;9.00;50.50;;;;;;4952420;28;20044;-89
2022/02/14 02:49:20;;;;;;;3.72;2.17;;;9.00;50.60;;;;;;4966176;28;20049;-92
2022/02/14 02:51:49;;;;;;;3.45;1.80;;;9.00;50.70;;;;;;4955051;28;20042;-90
2022/02/14 02:54:15;;;;;;;2.70;1.70;;;9.00;50.70;;;;;;4969653;28;20096;-92
2022/02/14 02:56:44;;;;;;;3.10;1.98;;;9.00;50.60;;;;;;4969322;28;20406;-87
2022/02/14 02:59:11;;;;;;;2.67;1.95;;;9.00;50.50;;;;;;4977564;28;20574;-92
2022/02/14 03:01:38;;;;;;;3.75;2.15;;;9.00;50.40;;;;;;4970369;28;20034;-91
2022/02/14 03:04:06;;;;;;;2.88;1.98;;;9.00;50.40;;;;;;4972990;28;20433;-86
2022/02/14 03:06:32;;;;;;;6.57;1.88;;;9.00;50.50;;;;;;4968324;28;20031;-88
2022/02/14 03:08:59;;;;;;;4.43;2.25;;;9.00;50.30;;;;;;4967209;28;20113;-88
2022/02/14 03:11:25;;;;;;;3.42;2.33;;;9.00;50.30;;;;;;4970291;28;20041;-89
2022/02/14 03:13:52;;;;;;;2.95;2.08;;;9.00;50.20;;;;;;4964732;28;20035;-88
2022/02/14 03:16:18;;;;;;;2.42;1.80;;;9.00;50.30;;;;;;4969112;28;20126;-88
2022/02/14 03:18:45;;;;;;;2.65;1.85;;;9.00;50.40;;;;;;4967356;28;20086;-89
2022/02/14 03:21:11;;;;;;;3.17;2.45;;;9.00;50.40;;;;;;4968404;28;20039;-90
2022/02/14 03:23:38;;;;;;;3.00;1.80;;;9.00;50.50;;;;;;4960606;28;20034;-88
2022/02/14 03:26:05;;;;;;;4.95;2.10;;;8.90;50.40;;;;;;4953060;28;20034;-91
2022/02/14 03:28:31;;;;;;;2.72;2.00;;;8.90;50.40;;;;;;4968400;28;20089;-87
2022/02/14 03:30:59;;;;;;;3.30;2.35;;;8.90;50.70;;;;;;4984922;28;20042;-87
2022/02/14 03:33:25;;;;;;;4.35;2.35;;;8.90;50.40;;;;;;4985298;28;20105;-87
2022/02/14 03:35:52;;;;;;;3.42;1.90;;;8.90;50.50;;;;;;4949753;28;20039;-88
2022/02/14 03:38:18;;;;;;;3.22;2.00;;;8.90;50.50;;;;;;4953080;28;20042;-87
2022/02/14 03:40:44;;;;;;;5.82;2.10;;;8.90;50.50;;;;;;4979904;28;20409;-87
2022/02/14 03:43:10;;;;;;;4.00;2.00;;;8.90;50.70;;;;;;4967848;28;20031;-87
2022/02/14 03:45:39;;;;;;;3.25;2.17;;;8.90;50.80;;;;;;4983810;28;20035;-87
2022/02/14 03:48:05;;;;;;;3.00;2.00;;;8.90;51.00;;;;;;4972293;28;20392;-87
2022/02/14 03:50:32;;;;;;;4.43;2.10;;;8.90;51.10;;;;;;4967743;28;20045;-86
2022/02/14 03:52:58;;;;;;;2.22;1.77;;;8.90;51.20;;;;;;4973459;28;20402;-87
2022/02/14 03:55:24;;;;;;;4.05;1.90;;;8.90;51.30;;;;;;4960978;28;20035;-86
2022/02/14 03:57:51;;;;;;;2.42;1.77;;;8.90;51.30;;;;;;4952861;28;20061;-87
2022/02/14 04:00:19;;;;;;;2.95;2.20;;;8.90;51.30;;;;;;4962982;28;20378;-87
2022/02/14 04:02:45;;;;;;;3.72;1.90;;;8.90;51.40;;;;;;4954521;28;20030;-87
2022/02/14 04:05:13;;;;;;;2.90;1.98;;;8.90;51.30;;;;;;4993466;28;20045;-87
2022/02/14 04:07:39;;;;;;;2.90;1.73;;;8.90;51.30;;;;;;4993532;28;20034;-87
2022/02/14 04:10:07;;;;;;;3.92;2.00;;;8.90;51.90;;;;;;4988903;28;20034;-87
2022/02/14 04:12:33;;;;;;;2.72;1.75;;;8.90;51.30;;;;;;4971901;28;20041;-87
2022/02/14 04:14:59;;;;;;;3.85;2.00;;;8.90;51.40;;;;;;4977170;28;20031;-88
2022/02/14 04:17:25;;;;;;;3.88;1.77;;;8.90;51.40;;;;;;4982088;28;20022;-88
2022/02/14 04:19:52;;;;;;;3.30;1.88;;;8.90;51.40;;;;;;4968821;28;20041;-88
2022/02/14 04:22:19;;;;;;;3.00;1.80;;;8.90;51.40;;;;;;4957619;28;20384;-89
2022/02/14 04:24:46;;;;;;;4.15;1.75;;;8.90;51.50;;;;;;4985389;28;20034;-92
2022/02/14 04:27:12;;;;;;;3.38;2.20;;;8.90;51.50;;;;;;4978220;28;20457;-89
2022/02/14 04:29:38;;;;;;;2.97;2.10;;;8.90;51.50;;;;;;4973786;28;20067;-89
2022/02/14 04:32:05;;;;;;;2.40;1.77;;;8.90;51.70;;;;;;4959493;28;20031;-91
2022/02/14 04:34:31;;;;;;;3.38;2.00;;;8.90;51.60;;;;;;4979471;28;20609;-91
2022/02/14 04:36:57;;;;;;;3.40;2.17;;;8.90;51.50;;;;;;4967001;28;20026;-92
2022/02/14 04:39:23;;;;;;;4.93;2.10;;;8.90;51.50;;;;;;4964887;28;20034;-89
2022/02/14 04:41:49;;;;;;;2.90;2.00;;;8.90;51.60;;;;;;4954818;28;20038;-91
2022/02/14 04:44:15;;;;;;;4.60;2.33;;;8.90;51.50;;;;;;4973879;28;20026;-88
2022/02/14 04:46:41;;;;;;;2.03;1.80;;;8.90;51.50;;;;;;4978777;28;20442;-90
2022/02/14 04:49:08;;;;;;;3.65;2.13;;;8.80;51.50;;;;;;4974765;28;20117;-89
2022/02/14 04:51:34;;;;;;;5.82;2.33;;;8.90;51.50;;;;;;4995782;28;20031;-87
2022/02/14 04:54:02;;;;;;;2.80;1.70;;;8.80;51.50;;;;;;4978808;28;20066;-84
2022/02/14 04:56:28;;;;;;;2.67;1.83;;;8.90;51.60;;;;;;4997818;28;20049;-88
2022/02/14 04:58:54;;;;;;;3.22;1.95;;;8.90;51.50;;;;;;4989650;28;20069;-87
2022/02/14 05:01:20;;;;;;;5.47;2.10;;;8.90;51.30;;;;;;4969768;28;20113;-87
2022/02/14 05:03:47;;;;;;;3.33;2.35;;;8.90;51.30;;;;;;5004649;28;20069;-89
2022/02/14 05:06:13;;;;;;;3.25;1.90;;;8.90;51.20;;;;;;4968728;28;20506;-90
2022/02/14 05:08:40;;;;;;;3.03;1.92;;;8.80;51.00;;;;;;4975121;28;20101;-92
2022/02/14 05:11:07;;;;;;;4.38;2.25;;;8.80;50.90;;;;;;4995432;28;20043;-88
2022/02/14 05:13:33;;;;;;;4.32;2.08;;;8.80;50.80;;;;;;4986812;28;20042;-88
2022/02/14 05:15:59;;;;;;;3.58;1.90;;;8.80;50.70;;;;;;4969195;28;20034;-89
2022/02/14 05:18:25;;;;;;;2.92;1.92;;;8.80;50.60;;;;;;4981254;28;20134;-87
2022/02/14 05:20:51;;;;;;;3.05;2.15;;;8.70;50.40;;;;;;4964431;28;20042;-88
2022/02/14 05:23:17;;;;;;;3.58;2.13;;;8.80;50.40;;;;;;4959343;28;20448;-86
2022/02/14 05:25:43;;;;;;;4.43;1.90;;;8.70;50.40;;;;;;4986559;28;20065;-89
2022/02/14 05:28:10;;;;;;;5.97;2.28;;;8.70;50.30;;;;;;4987671;28;20393;-88
2022/02/14 05:30:36;;;;;;;4.22;2.20;;;8.70;50.50;;;;;;4974842;28;20035;-88
2022/02/14 05:33:06;;;;;;;3.25;1.98;;;8.70;50.70;;;;;;4962156;28;20130;-87
2022/02/14 05:35:33;;;;;;;5.20;2.47;;;8.70;50.80;;;;;;4968050;28;20100;-88
2022/02/14 05:37:59;;;;;;;2.67;2.10;;;8.70;50.90;;;;;;4964118;28;20068;-88
2022/02/14 05:40:26;;;;;;;3.28;2.42;;;8.70;50.80;;;;;;4961592;28;20039;-88
2022/02/14 05:42:52;;;;;;;4.65;2.03;;;8.70;50.90;;;;;;4953043;28;20109;-88
2022/02/14 05:45:18;;;;;;;4.93;2.00;;;8.70;51.00;;;;;;4987868;28;20038;-89
2022/02/14 05:47:44;;;;;;;3.45;2.20;;;8.70;51.00;;;;;;4988992;28;20062;-88
2022/02/14 05:50:10;;;;;;;5.20;2.17;;;8.70;51.00;;;;;;4980796;28;20469;-89
2022/02/14 05:52:39;;;;;;;3.30;1.90;;;8.70;51.00;;;;;;4992039;28;20049;-89
2022/02/14 05:55:07;;;;;;;3.90;2.13;;;8.70;51.00;;;;;;4998610;28;20045;-89
2022/02/14 05:57:33;;;;;;;2.95;2.08;;;8.70;50.90;;;;;;4969391;28;20420;-90
2022/02/14 06:00:00;;;;;;;6.00;2.38;;;8.70;51.00;;;;;;4946076;28;20074;-88
2022/02/14 06:02:26;;;;;;;4.20;2.80;;;8.70;51.80;;;;;;4970542;28;20126;-89
2022/02/14 06:04:52;;;;;;;5.22;2.08;;;8.70;52.70;;;;;;4993627;28;20040;-88
2022/02/14 06:07:21;;;;;;;5.63;2.38;;;8.80;53.60;;;;;;5002379;28;20106;-90
2022/02/14 06:09:47;;;;;;;3.30;2.20;;;8.70;54.10;;;;;;4976797;28;20046;-89
2022/02/14 06:12:13;;;;;;;3.65;2.28;;;8.80;54.70;;;;;;4959804;28;20050;-87
2022/02/14 06:14:39;;;;;;;6.82;2.65;;;8.80;55.10;;;;;;4975688;28;20073;-87
2022/02/14 06:17:05;;;;;;;3.85;2.40;;;8.80;55.50;;;;;;4968595;28;20409;-88
2022/02/14 06:19:31;;;;;;;2.63;2.15;;;8.90;55.60;;;;;;4977169;28;20039;-85
2022/02/14 06:21:57;;;;;;;7.35;2.35;;;8.90;55.60;;;;;;4973907;28;20023;-89
2022/02/14 06:24:23;;;;;;;3.88;2.22;;;8.90;55.80;;;;;;4989178;28;20043;-85
2022/02/14 06:26:49;;;;;;;3.70;2.10;;;8.90;56.00;;;;;;4981869;28;20045;-88
2022/02/14 06:29:15;;;;;;;3.80;2.03;;;9.00;56.20;;;;;;4957341;28;20183;-89
2022/02/14 06:31:41;;;;;;;5.07;2.35;;;9.00;56.30;;;;;;4960457;28;20039;-89
2022/02/14 06:34:07;;;;;;;5.18;2.55;;;9.00;56.30;;;;;;4969529;28;20517;-89
2022/02/14 06:36:33;;;;;;;4.78;2.28;;;9.00;56.30;;;;;;4952727;28;20039;-90
2022/02/14 06:39:00;;;;;;;2.95;2.10;;;9.10;56.50;;;;;;4975696;28;20525;-90
2022/02/14 06:41:26;;;;;;;3.92;2.13;;;9.10;56.70;;;;;;4970904;28;20046;-93
2022/02/14 06:43:53;;;;;;;3.92;2.30;;;9.10;56.70;;;;;;4960905;28;20053;-92
2022/02/14 06:46:20;;;;;;;4.38;1.98;;;9.10;56.80;;;;;;4977828;28;20060;-90
2022/02/14 06:48:48;;;;;;;3.85;2.30;;;9.20;56.90;;;;;;4959765;28;20283;-90
2022/02/14 06:51:14;;;;;;;3.70;2.30;;;9.20;57.10;;;;;;4971857;28;20130;-89
2022/02/14 06:53:47;;;;;;;4.00;2.38;;;9.20;56.90;;;;;;4962075;28;20774;-88
2022/02/14 06:56:14;;;;;;;2.83;2.03;;;9.30;57.00;;;;;;4962299;28;20042;-88
2022/02/14 06:58:41;;;;;;;2.90;2.17;;;9.30;57.60;;;;;;4972895;28;20058;-85
2022/02/14 07:01:08;;;;;;;4.55;2.22;;;9.30;57.10;;;;;;4985703;28;20035;-90
2022/02/14 07:03:37;;;;;;;3.03;1.90;;;9.30;57.20;;;;;;4977456;28;20560;-90
2022/02/14 07:06:07;;;;;;;4.05;1.63;;;9.40;57.30;;;;;;4980303;28;20035;-89
2022/02/14 07:08:33;;;;;;;3.60;2.05;;;9.40;57.40;;;;;;4983084;28;20798;-90
2022/02/14 07:11:00;;;;;;;3.05;1.70;;;9.50;57.50;;;;;;4979413;28;20116;-91
2022/02/14 07:13:26;;;;;;;3.67;2.17;;;9.50;57.50;;;;;;4988677;28;20030;-88
2022/02/14 07:15:52;;;;;;;2.70;1.65;;;9.50;57.50;;;;;;4989983;28;20030;-88
2022/02/14 07:18:19;;;;;;;3.35;2.33;;;9.50;57.50;;;;;;4989098;28;20034;-90
2022/02/14 07:20:45;;;;;;;4.00;2.30;;;9.60;57.50;;;;;;4970131;28;20061;-90
2022/02/14 07:23:11;;;;;;;2.97;1.90;;;9.60;57.50;;;;;;4975815;28;20031;-88
2022/02/14 07:25:37;;;;;;;4.25;2.10;;;9.70;57.40;;;;;;4969144;28;20034;-87
2022/02/14 07:28:04;;;;;;;3.97;2.17;;;9.70;57.40;;;;;;4988037;28;20042;-90
2022/02/14 07:30:30;;;;;;;4.53;2.35;;;9.70;57.30;;;;;;4956782;28;20088;-88
2022/02/14 07:32:56;;;;;;;4.30;2.63;;;9.80;57.40;;;;;;4975209;28;20575;-87
2022/02/14 07:35:22;;;;;;;3.13;2.33;;;9.80;57.30;;;;;;4976226;28;20177;-88
2022/02/14 07:37:48;;;;;;;2.58;2.03;;;9.90;57.40;;;;;;4994607;28;20034;-88
2022/02/14 07:40:16;;;;;;;3.92;2.75;;;9.90;57.40;;;;;;4994612;28;20034;-92
2022/02/14 07:42:43;;;;;;;3.80;2.50;;;10.00;57.40;;;;;;4977187;28;20049;-87
2022/02/14 07:45:10;;;;;;;4.05;2.75;;;10.00;57.40;;;;;;4974777;28;20039;-89
2022/02/14 07:47:36;;;;;;;3.50;2.60;;;10.00;57.40;;;;;;4983019;28;20097;-88
2022/02/14 07:50:06;;;;;;;4.40;2.70;;;10.00;57.40;;;;;;4972127;28;20027;-87
2022/02/14 07:52:33;;;;;;;4.30;2.38;;;10.00;57.70;;;;;;4993108;28;20038;-89
2022/02/14 07:54:59;;;;;;;3.97;2.70;;;10.10;57.30;;;;;;4980452;28;20030;-87
2022/02/14 07:57:25;;;;;;;5.07;2.28;;;10.10;57.20;;;;;;4974353;28;20058;-88
2022/02/14 07:59:52;;;;;;;3.47;2.33;;;10.10;57.10;;;;;;4974053;28;20073;-87
2022/02/14 08:02:18;;;;;;;3.00;2.15;;;10.10;57.10;;;;;;4973755;28;20085;-88
2022/02/14 08:04:46;;;;;;;5.72;3.17;;;10.10;57.00;;;;;;4964980;28;20042;-91
2022/02/14 08:07:15;;;;;;;4.03;2.45;;;10.20;57.00;;;;;;4956723;28;20057;-95
2022/02/14 08:09:41;;;;;;;3.38;2.47;;;10.20;57.00;;;;;;4981756;28;20046;-85
2022/02/14 08:12:09;;;;;;;3.83;2.80;;;10.20;57.00;;;;;;4996259;28;20027;-92
2022/02/14 08:14:36;;;;;;;4.20;2.50;;;10.20;57.10;;;;;;5000964;28;20038;-94
2022/02/14 08:17:09;;;;;;;4.25;2.42;;;10.30;57.40;;;;;;4973085;28;20038;-93
2022/02/14 08:19:45;;;;;;;2.97;2.20;;;10.30;57.50;;;;;;5200987;23;20058;-91
2022/02/14 08:22:14;;;;;;;4.32;2.65;;;10.30;57.50;;;;;;4934743;29;20040;-92
2022/02/14 08:24:40;;;;;;;4.32;2.80;;;10.40;57.50;;;;;;4956225;29;20081;-91
2022/02/14 08:27:06;;;;;;;3.20;2.33;;;10.40;57.60;;;;;;4955886;28;20134;-95
2022/02/14 08:29:33;;;;;;;3.58;2.40;;;10.40;57.60;;;;;;4940959;28;20039;-96
2022/02/14 08:31:59;;;;;;;3.75;2.42;;;10.40;57.60;;;;;;4952913;28;20023;-95
2022/02/14 08:34:28;;;;;;;3.83;2.40;;;10.40;57.60;;;;;;4936262;28;20039;-94
2022/02/14 08:36:55;;;;;;;6.05;3.40;;;10.50;57.70;;;;;;4927926;29;20035;-91
2022/02/14 08:39:21;;;;;;;5.78;4.30;;;10.50;56.40;;;;;;4911159;28;20046;-89
2022/02/14 08:41:52;;;;;;;6.32;4.00;;;10.50;53.90;;;;;;4938956;29;20035;-90
2022/02/14 08:44:18;;;;;;;5.50;3.85;;;10.50;52.50;;;;;;4946718;28;20447;-90
2022/02/14 08:46:47;;;;;;;7.00;4.57;;;10.40;51.50;;;;;;4935035;28;20046;-92
2022/02/14 08:49:13;;;;;;;5.35;3.83;;;10.40;51.10;;;;;;4922556;28;20035;-90
2022/02/14 08:51:42;;;;;;;6.90;4.57;;;10.30;50.70;;;;;;4937305;28;20536;-89
2022/02/14 08:54:08;;;;;;;7.22;4.18;;;10.20;50.30;;;;;;4946469;28;20498;-90
2022/02/14 08:56:34;;;;;;;7.28;4.57;;;10.20;50.00;;;;;;4938708;28;20067;-90
2022/02/14 08:59:02;;;;;;;10.57;5.97;;;10.20;50.40;;;;;;4937694;28;20165;-89
2022/02/14 09:01:28;;;;;;;8.00;4.70;;;10.10;50.10;;;;;;4954749;28;20039;-92
2022/02/14 09:03:56;;;;;;;8.23;5.05;;;10.10;50.00;;;;;;4948552;28;20510;-90
2022/02/14 09:06:22;;;;;;;7.85;5.05;;;10.00;50.00;;;;;;4948310;28;20039;-88
2022/02/14 09:08:48;;;;;;;9.82;4.72;;;10.00;50.20;;;;;;4941473;29;20094;-91
2022/02/14 09:11:15;;;;;;;6.97;4.65;;;10.00;50.20;;;;;;4946885;28;20035;-90
2022/02/14 09:13:41;;;;;;;8.02;4.75;;;9.90;49.90;;;;;;4953120;28;20051;-89
2022/02/14 09:16:07;;;;;;;7.43;4.90;;;9.90;49.90;;;;;;4921709;29;20042;-91
2022/02/14 09:18:34;;;;;;;7.10;4.47;;;9.90;50.00;;;;;;4939531;28;20043;-89
2022/02/14 09:21:02;;;;;;;6.75;4.65;;;9.80;49.90;;;;;;4964523;28;20047;-86
2022/02/14 09:23:29;;;;;;;9.90;4.93;;;9.80;49.80;;;;;;4965464;28;20160;-91
2022/02/14 09:25:56;;;;;;;9.75;4.88;;;9.80;50.10;;;;;;4982150;28;20034;-91
2022/02/14 09:28:23;;;;;;;8.15;4.60;;;9.80;50.50;;;;;;4950539;28;20040;-90
2022/02/14 09:30:50;;;;;;;8.13;4.63;;;9.80;50.40;;;;;;4941162;29;20031;-90
2022/02/14 09:33:16;;;;;;;9.07;4.82;;;9.70;50.10;;;;;;4951361;28;20491;-84
2022/02/14 09:35:42;;;;;;;7.78;5.20;;;9.70;50.30;;;;;;4949389;28;20035;-83
2022/02/14 09:38:10;;;;;;;7.25;5.10;;;9.70;50.30;;;;;;4948832;28;20031;-82
2022/02/14 09:40:36;;;;;;;9.50;5.25;;;9.70;50.10;;;;;;4964589;28;20362;-81
2022/02/14 09:43:04;;;;;;;6.63;4.90;;;9.70;50.30;;;;;;4948419;28;20107;-79
2022/02/14 09:45:31;;;;;;;8.90;5.65;;;9.70;50.30;;;;;;4948091;28;20035;-82
2022/02/14 09:48:00;;;;;;;6.75;4.85;;;9.60;50.60;;;;;;4949861;28;20118;-82
2022/02/14 09:50:31;;;;;;;7.78;5.13;;;9.60;50.60;;;;;;4948774;28;20098;-84
2022/02/14 09:52:57;;;;;;;13.25;5.50;;;9.60;50.50;;;;;;4950064;28;20039;-85
2022/02/14 09:55:24;;;;;;;9.60;5.50;;;9.70;50.80;;;;;;4947494;28;20955;-83
2022/02/14 09:57:50;;;;;;;8.75;5.63;;;9.60;51.30;;;;;;4952115;28;20126;-85
2022/02/14 10:00:17;;;;;;;11.05;5.35;;;9.70;51.40;;;;;;4933168;29;20600;-83
2022/02/14 10:02:43;;;;;;;7.95;5.07;;;9.60;51.30;;;;;;4948824;28;20039;-85
2022/02/14 10:05:18;;;;;;;8.90;5.70;;;9.70;51.40;;;;;;4951081;28;20110;-85
2022/02/14 10:07:47;;;;;;;9.65;5.45;;;9.60;51.30;;;;;;4964759;28;20087;-83
2022/02/14 10:10:17;;;;;;;7.43;5.13;;;9.60;51.60;;;;;;4964564;28;20474;-83
2022/02/14 10:12:49;;;;;;;10.40;5.80;;;9.60;51.50;;;;;;4948840;28;20392;-83
2022/02/14 10:15:16;;;;;;;6.80;5.03;;;9.60;51.60;;;;;;4947568;28;20039;-83
2022/02/14 10:17:47;;;;;;;8.80;5.88;;;9.60;51.60;;;;;;4948515;28;20038;-82
2022/02/14 10:20:18;;;;;;;8.57;5.40;;;9.60;51.60;;;;;;4962190;28;20166;-83
2022/02/14 10:23:10;;;;;;;8.43;5.47;;;9.60;51.40;;;;;;4956035;28;20040;-81
2022/02/14 10:25:41;;;;;;;8.70;5.57;;;9.60;51.30;;;;;;4949076;28;20470;-84
2022/02/14 10:28:29;;;;;;;10.38;5.53;;;9.60;51.30;;;;;;4964849;28;20035;-85
2022/02/14 10:31:04;;;;;;;9.98;6.22;;;9.60;51.30;;;;;;4946113;28;20039;-83
2022/02/14 10:33:53;;;;;;;8.00;5.43;;;9.60;51.30;;;;;;4947848;28;20039;-83
2022/02/14 10:36:36;;;;;;;8.75;5.82;;;9.50;51.70;;;;;;4963044;28;20035;-83
2022/02/14 10:39:10;;;;;;;10.10;5.95;;;9.50;51.50;;;;;;4963390;28;20043;-83
2022/02/14 10:41:37;;;;;;;7.90;5.80;;;9.50;51.60;;;;;;4938338;28;20132;-83
2022/02/14 10:44:09;;;;;;;10.30;5.75;;;9.50;51.60;;;;;;4952206;29;20028;-83
2022/02/14 10:46:35;;;;;;;11.05;6.68;;;9.50;51.50;;;;;;4967073;28;20629;-83
2022/02/14 10:49:03;;;;;;;9.07;5.85;;;9.50;51.80;;;;;;4967167;28;20031;-83
2022/02/14 10:51:29;;;;;;;9.20;5.65;;;9.50;51.70;;;;;;4967940;28;20558;-82
2022/02/14 10:53:56;;;;;;;9.07;5.88;;;9.50;51.60;;;;;;4952466;28;20572;-83
2022/02/14 10:56:22;;;;;;;10.07;5.90;;;9.50;51.60;;;;;;4968654;28;20109;-82
2022/02/14 10:58:49;;;;;;;12.52;6.25;;;9.50;51.50;;;;;;4967673;28;20462;-82
2022/02/14 11:01:17;;;;;;;7.65;5.65;;;9.50;51.60;;;;;;4953465;28;20467;-83
2022/02/14 11:03:44;;;;;;;10.30;5.75;;;9.50;51.70;;;;;;4959158;28;20028;-82
2022/02/14 11:06:12;;;;;;;9.75;6.25;;;9.50;51.90;;;;;;4951007;29;20466;-84
2022/02/14 11:08:39;;;;;;;8.27;6.10;;;9.50;51.80;;;;;;4967249;28;20059;-84
2022/02/14 11:11:09;;;;;;;10.23;6.13;;;9.40;51.50;;;;;;4952333;29;20522;-83
2022/02/14 11:13:38;;;;;;;12.73;6.80;;;9.50;51.50;;;;;;4967038;28;20050;-84
2022/02/14 11:16:05;;;;;;;9.80;6.45;;;9.50;51.50;;;;;;4949255;29;20054;-84
2022/02/14 11:18:33;;;;;;;10.50;6.22;;;9.40;51.50;;;;;;4951830;28;20043;-83
2022/02/14 11:21:00;;;;;;;8.52;6.15;;;9.40;51.50;;;;;;4961654;28;20077;-83
2022/02/14 11:23:28;;;;;;;11.02;7.00;;;9.40;51.50;;;;;;4960573;28;20027;-83
2022/02/14 11:26:12;;;;;;;9.82;6.75;;;9.40;51.60;;;;;;4954936;28;20032;-83
2022/02/14 11:28:53;;;;;;;11.77;6.50;;;9.40;51.70;;;;;;4957474;28;20035;-83
2022/02/14 11:31:31;;;;;;;10.75;6.90;;;9.40;51.60;;;;;;4942870;28;20045;-84
2022/02/14 11:34:00;;;;;;;10.00;7.10;;;9.40;51.70;;;;;;4957889;28;20046;-83
2022/02/14 11:36:28;;;;;;;10.75;6.88;;;9.40;51.90;;;;;;4958481;28;20042;-84
2022/02/14 11:39:00;;;;;;;9.60;6.72;;;9.40;52.00;;;;;;4934701;28;20522;-86
2022/02/14 11:41:32;;;;;;;12.82;7.25;;;9.40;52.00;;;;;;4944119;28;20042;-84
2022/02/14 11:44:20;;;;;;;13.27;7.65;;;9.30;51.60;;;;;;4938945;28;20096;-85
2022/02/14 11:46:59;;;;;;;10.85;7.47;;;9.30;51.00;;;;;;4951164;28;20427;-85
2022/02/14 11:49:52;;;;;;;11.80;7.18;;;9.30;50.80;;;;;;4919750;29;20035;-85
2022/02/14 11:52:28;;;;;;;14.05;7.78;;;9.30;50.60;;;;;;4945563;29;20126;-84
2022/02/14 11:54:54;;;;;;;;;;;9.30;50.50;;;;;;4953418;29;20058;-85
2022/02/14 11:57:31;;;;;;;10.27;7.32;;;9.20;50.40;;;;;;4943200;29;20394;-85
2022/02/14 12:03:18;;;;;;;11.00;7.15;;;9.20;50.20;;;;;;4884681;29;20040;-85
2022/02/14 12:05:58;;;;;;;11.52;7.75;;;9.10;50.20;;;;;;4890037;29;20028;-86
2022/02/14 12:08:57;;;;;;;11.25;7.93;;;9.10;50.10;;;;;;4873025;29;20723;-85
2022/02/14 12:11:45;;;;;;;12.25;7.63;;;9.10;50.20;;;;;;4895743;29;20068;-88
2022/02/14 12:14:20;;;;;;;10.30;7.53;;;9.10;50.20;;;;;;4884194;29;20044;-89
2022/02/14 12:20:35;;;;;;;13.57;7.97;;;9.00;50.10;;;;;;4920312;29;20436;-87
2022/02/14 12:23:01;;;;;;;13.82;8.32;;;9.00;50.10;;;;;;4938533;29;20043;-91
2022/02/14 12:25:28;;;;;;;11.45;7.93;;;9.00;50.20;;;;;;4952534;29;20050;-88
2022/02/14 12:27:58;;;;;;;11.73;8.70;;;9.00;53.20;;;;;;4947761;29;20062;-88
2022/02/14 12:30:27;;;;;;;11.02;7.18;;;9.00;53.10;;;;;;4951484;29;20054;-88
2022/02/14 12:33:06;;;;;;;10.23;7.32;;;9.10;53.20;;;;;;4949567;29;20046;-89
2022/02/14 12:35:40;;;;;;;13.30;7.68;;;9.10;53.00;;;;;;4947590;29;20558;-89
2022/02/14 12:38:08;;;;;;;12.43;7.38;;;9.10;53.50;;;;;;4967114;28;20069;-90
2022/02/14 12:41:11;;;;;;;15.00;7.97;;;9.10;53.90;;;;;;4937123;29;20122;-87
2022/02/14 12:43:41;;;;;;;13.10;7.43;;;9.20;54.50;;;;;;4958443;28;20138;-88
2022/02/14 12:46:18;;;;;;;11.98;7.43;;;9.20;54.40;;;;;;4954976;28;20036;-88
2022/02/14 12:48:47;;;;;;;10.98;6.90;;;9.20;54.70;;;;;;4969373;28;20043;-88
2022/02/14 12:51:22;;;;;;;11.30;7.18;;;9.20;54.80;;;;;;4951164;28;20580;-90
2022/02/14 12:53:55;;;;;;;11.65;7.25;;;9.30;54.80;;;;;;4969636;28;20141;-89
2022/02/14 12:56:29;;;;;;;11.75;7.30;;;9.30;54.60;;;;;;4979192;28;20027;-86
2022/02/14 12:59:01;;;;;;;11.60;7.53;;;9.30;55.00;;;;;;4965512;28;20043;-87
2022/02/14 13:01:28;;;;;;;11.75;7.03;;;9.30;54.70;;;;;;4967800;28;20054;-88
2022/02/14 13:03:59;;;;;;;10.70;6.90;;;9.30;54.80;;;;;;4968349;28;20098;-90
2022/02/14 13:06:56;;;;;;;13.30;6.95;;;9.30;54.80;;;;;;4958868;28;20066;-88
2022/02/14 13:09:29;;;;;;;12.80;7.68;;;9.40;55.60;;;;;;4931978;29;20043;-88
2022/02/14 13:12:01;;;;;;;12.90;7.65;;;9.40;55.40;;;;;;4976108;28;20034;-88